sensor_id;sensor_type;location;lat;lon;timestamp;temperature;humidity
2657;DHT22;1338;48.176;11.792;2023-11-19T00:00:37;3.10;69.80
2657;DHT22;1338;48.176;11.792;2023-11-19T00:03:20;3.10;99.90
2657;DHT22;1338;48.176;11.792;2023-11-19T00:05:49;3.10;98.40
2657;DHT22;1338;48.176;11.792;2023-11-19T00:08:19;3.00;99.90
2657;DHT22;1338;48.176;11.792;2023-11-19T00:10:48;3.00;99.90
2657;DHT22;1338;48.176;11.792;2023-11-19T00:13:18;3.00;99.90
2657;DHT22;1338;48.176;11.792;2023-11-19T00:15:49;3.00;99.90
2657;DHT22;1338;48.176;11.792;2023-11-19T00:18:17;3.10;99.90
2657;DHT22;1338;48.176;11.792;2023-11-19T00:20:48;3.10;99.90
2657;DHT22;1338;48.176;11.792;2023-11-19T00:23:22;3.20;99.90
2657;DHT22;1338;48.176;11.792;2023-11-19T00:25:53;3.20;99.90
2657;DHT22;1338;48.176;11.792;2023-11-19T00:28:22;3.20;99.90
2657;DHT22;1338;48.176;11.792;2023-11-19T00:30:55;3.30;99.90
2657;DHT22;1338;48.176;11.792;2023-11-19T00:33:24;3.20;99.90
2657;DHT22;1338;48.176;11.792;2023-11-19T00:35:53;3.50;99.90
2657;DHT22;1338;48.176;11.792;2023-11-19T00:38:23;3.40;99.90
2657;DHT22;1338;48.176;11.792;2023-11-19T00:40:51;3.50;99.90
2657;DHT22;1338;48.176;11.792;2023-11-19T00:43:21;3.30;99.90
2657;DHT22;1338;48.176;11.792;2023-11-19T00:45:51;3.30;99.90
2657;DHT22;1338;48.176;11.792;2023-11-19T00:48:23;3.50;99.90
2657;DHT22;1338;48.176;11.792;2023-11-19T00:50:52;3.30;99.90
2657;DHT22;1338;48.176;11.792;2023-11-19T00:53:22;3.40;99.90
2657;DHT22;1338;48.176;11.792;2023-11-19T00:55:51;3.40;99.90
2657;DHT22;1338;48.176;11.792;2023-11-19T00:58:20;3.40;99.90
2657;DHT22;1338;48.176;11.792;2023-11-19T01:00:49;3.50;99.90
2657;DHT22;1338;48.176;11.792;2023-11-19T01:03:18;3.60;99.90
2657;DHT22;1338;48.176;11.792;2023-11-19T01:05:47;3.60;99.90
2657;DHT22;1338;48.176;11.792;2023-11-19T01:08:16;3.70;99.90
2657;DHT22;1338;48.176;11.792;2023-11-19T01:10:46;3.70;99.90
2657;DHT22;1338;48.176;11.792;2023-11-19T01:13:15;3.70;99.90
2657;DHT22;1338;48.176;11.792;2023-11-19T01:15:43;3.70;99.90
2657;DHT22;1338;48.176;11.792;2023-11-19T01:18:12;3.70;99.90
2657;DHT22;1338;48.176;11.792;2023-11-19T01:20:41;3.70;99.90
2657;DHT22;1338;48.176;11.792;2023-11-19T01:23:09;3.70;99.90
2657;DHT22;1338;48.176;11.792;2023-11-19T01:25:37;3.90;99.90
2657;DHT22;1338;48.176;11.792;2023-11-19T01:28:07;3.90;99.90
2657;DHT22;1338;48.176;11.792;2023-11-19T01:30:38;3.90;99.90
2657;DHT22;1338;48.176;11.792;2023-11-19T01:33:08;4.00;99.90
2657;DHT22;1338;48.176;11.792;2023-11-19T01:35:37;4.20;99.90
2657;DHT22;1338;48.176;11.792;2023-11-19T01:38:06;4.10;99.90
2657;DHT22;1338;48.176;11.792;2023-11-19T01:40:36;4.10;99.90
2657;DHT22;1338;48.176;11.792;2023-11-19T01:43:05;4.10;99.90
2657;DHT22;1338;48.176;11.792;2023-11-19T01:45:40;4.10;99.90
2657;DHT22;1338;48.176;11.792;2023-11-19T01:48:08;4.00;99.90
2657;DHT22;1338;48.176;11.792;2023-11-19T01:50:38;4.00;99.90
2657;DHT22;1338;48.176;11.792;2023-11-19T01:53:07;4.00;99.90
2657;DHT22;1338;48.176;11.792;2023-11-19T01:55:36;4.00;1.00
2657;DHT22;1338;48.176;11.792;2023-11-19T01:58:07;4.10;1.00
2657;DHT22;1338;48.176;11.792;2023-11-19T02:00:38;4.20;1.00
2657;DHT22;1338;48.176;11.792;2023-11-19T02:03:06;4.20;1.00
2657;DHT22;1338;48.176;11.792;2023-11-19T02:05:37;4.20;1.00
2657;DHT22;1338;48.176;11.792;2023-11-19T02:08:06;4.20;1.00
2657;DHT22;1338;48.176;11.792;2023-11-19T02:10:37;4.20;1.00
2657;DHT22;1338;48.176;11.792;2023-11-19T02:13:09;4.30;1.00
2657;DHT22;1338;48.176;11.792;2023-11-19T02:15:42;4.40;1.00
2657;DHT22;1338;48.176;11.792;2023-11-19T02:18:18;4.40;1.00
2657;DHT22;1338;48.176;11.792;2023-11-19T02:20:49;4.40;99.90
2657;DHT22;1338;48.176;11.792;2023-11-19T02:23:20;4.40;99.90
2657;DHT22;1338;48.176;11.792;2023-11-19T02:25:58;4.50;1.00
2657;DHT22;1338;48.176;11.792;2023-11-19T02:28:29;4.50;1.00
2657;DHT22;1338;48.176;11.792;2023-11-19T02:30:58;4.60;1.00
2657;DHT22;1338;48.176;11.792;2023-11-19T02:33:27;4.60;1.00
2657;DHT22;1338;48.176;11.792;2023-11-19T02:35:56;4.60;1.00
2657;DHT22;1338;48.176;11.792;2023-11-19T02:38:26;4.60;1.00
2657;DHT22;1338;48.176;11.792;2023-11-19T02:40:55;4.60;1.00
2657;DHT22;1338;48.176;11.792;2023-11-19T02:43:24;4.70;1.00
2657;DHT22;1338;48.176;11.792;2023-11-19T02:45:54;4.60;1.00
2657;DHT22;1338;48.176;11.792;2023-11-19T02:48:26;4.70;1.00
2657;DHT22;1338;48.176;11.792;2023-11-19T02:50:55;4.70;1.00
2657;DHT22;1338;48.176;11.792;2023-11-19T02:53:25;4.80;1.00
2657;DHT22;1338;48.176;11.792;2023-11-19T02:55:56;4.80;1.00
2657;DHT22;1338;48.176;11.792;2023-11-19T02:58:28;4.80;1.00
2657;DHT22;1338;48.176;11.792;2023-11-19T03:00:59;4.80;1.00
2657;DHT22;1338;48.176;11.792;2023-11-19T03:03:36;4.80;1.00
2657;DHT22;1338;48.176;11.792;2023-11-19T03:06:08;4.80;1.00
2657;DHT22;1338;48.176;11.792;2023-11-19T03:08:38;4.90;1.00
2657;DHT22;1338;48.176;11.792;2023-11-19T03:11:08;4.90;1.00
2657;DHT22;1338;48.176;11.792;2023-11-19T03:13:39;4.90;1.00
2657;DHT22;1338;48.176;11.792;2023-11-19T03:16:12;4.90;1.00
2657;DHT22;1338;48.176;11.792;2023-11-19T03:18:44;5.00;1.00
2657;DHT22;1338;48.176;11.792;2023-11-19T03:21:14;5.10;39.60
2657;DHT22;1338;48.176;11.792;2023-11-19T03:23:43;5.10;99.90
2657;DHT22;1338;48.176;11.792;2023-11-19T03:26:12;5.20;99.90
2657;DHT22;1338;48.176;11.792;2023-11-19T03:28:40;5.30;99.90
2657;DHT22;1338;48.176;11.792;2023-11-19T03:31:09;5.30;99.90
2657;DHT22;1338;48.176;11.792;2023-11-19T03:33:41;5.30;99.90
2657;DHT22;1338;48.176;11.792;2023-11-19T03:36:09;5.40;1.00
2657;DHT22;1338;48.176;11.792;2023-11-19T03:38:40;5.40;1.00
2657;DHT22;1338;48.176;11.792;2023-11-19T03:41:13;5.50;1.00
2657;DHT22;1338;48.176;11.792;2023-11-19T03:43:42;5.40;1.00
2657;DHT22;1338;48.176;11.792;2023-11-19T03:46:18;5.40;1.00
2657;DHT22;1338;48.176;11.792;2023-11-19T03:48:50;5.50;1.00
2657;DHT22;1338;48.176;11.792;2023-11-19T03:51:18;5.50;1.00
2657;DHT22;1338;48.176;11.792;2023-11-19T03:53:47;5.60;1.00
2657;DHT22;1338;48.176;11.792;2023-11-19T03:56:15;5.50;1.00
2657;DHT22;1338;48.176;11.792;2023-11-19T03:58:44;5.60;1.00
2657;DHT22;1338;48.176;11.792;2023-11-19T04:01:14;5.50;1.00
2657;DHT22;1338;48.176;11.792;2023-11-19T04:03:43;5.50;23.10
2657;DHT22;1338;48.176;11.792;2023-11-19T04:06:15;5.50;83.60
2657;DHT22;1338;48.176;11.792;2023-11-19T04:08:45;5.60;99.90
2657;DHT22;1338;48.176;11.792;2023-11-19T04:11:13;5.50;99.90
2657;DHT22;1338;48.176;11.792;2023-11-19T04:13:42;5.50;99.90
2657;DHT22;1338;48.176;11.792;2023-11-19T04:16:11;5.50;99.90
2657;DHT22;1338;48.176;11.792;2023-11-19T04:18:41;5.50;99.90
2657;DHT22;1338;48.176;11.792;2023-11-19T04:21:09;5.50;99.90
2657;DHT22;1338;48.176;11.792;2023-11-19T04:23:40;5.50;99.90
2657;DHT22;1338;48.176;11.792;2023-11-19T04:26:10;5.50;99.90
2657;DHT22;1338;48.176;11.792;2023-11-19T04:28:41;5.50;99.90
2657;DHT22;1338;48.176;11.792;2023-11-19T04:31:12;5.50;99.90
2657;DHT22;1338;48.176;11.792;2023-11-19T04:33:43;5.50;99.90
2657;DHT22;1338;48.176;11.792;2023-11-19T04:36:11;5.50;99.90
2657;DHT22;1338;48.176;11.792;2023-11-19T04:38:43;5.50;99.90
2657;DHT22;1338;48.176;11.792;2023-11-19T04:41:13;5.50;99.90
2657;DHT22;1338;48.176;11.792;2023-11-19T04:43:42;5.50;99.90
2657;DHT22;1338;48.176;11.792;2023-11-19T04:46:11;5.50;99.90
2657;DHT22;1338;48.176;11.792;2023-11-19T04:48:40;5.50;99.90
2657;DHT22;1338;48.176;11.792;2023-11-19T04:51:09;5.50;99.90
2657;DHT22;1338;48.176;11.792;2023-11-19T04:53:37;5.50;99.90
2657;DHT22;1338;48.176;11.792;2023-11-19T04:56:10;5.40;99.90
2657;DHT22;1338;48.176;11.792;2023-11-19T04:58:39;5.50;99.90
2657;DHT22;1338;48.176;11.792;2023-11-19T05:01:13;5.50;99.90
2657;DHT22;1338;48.176;11.792;2023-11-19T05:03:46;5.50;99.90
2657;DHT22;1338;48.176;11.792;2023-11-19T05:06:16;5.50;99.90
2657;DHT22;1338;48.176;11.792;2023-11-19T05:08:45;5.50;99.90
2657;DHT22;1338;48.176;11.792;2023-11-19T05:11:16;5.50;99.90
2657;DHT22;1338;48.176;11.792;2023-11-19T05:13:47;5.90;99.90
2657;DHT22;1338;48.176;11.792;2023-11-19T05:16:17;5.70;99.90
2657;DHT22;1338;48.176;11.792;2023-11-19T05:18:48;6.10;99.90
2657;DHT22;1338;48.176;11.792;2023-11-19T05:21:19;6.00;99.90
2657;DHT22;1338;48.176;11.792;2023-11-19T05:23:47;5.90;99.90
2657;DHT22;1338;48.176;11.792;2023-11-19T05:26:21;6.00;99.90
2657;DHT22;1338;48.176;11.792;2023-11-19T05:28:50;6.30;99.90
2657;DHT22;1338;48.176;11.792;2023-11-19T05:31:19;6.30;99.90
2657;DHT22;1338;48.176;11.792;2023-11-19T05:33:48;6.50;99.90
2657;DHT22;1338;48.176;11.792;2023-11-19T05:36:17;6.90;99.90
2657;DHT22;1338;48.176;11.792;2023-11-19T05:38:47;7.00;99.90
2657;DHT22;1338;48.176;11.792;2023-11-19T05:41:15;7.20;99.90
2657;DHT22;1338;48.176;11.792;2023-11-19T05:43:46;7.40;1.00
2657;DHT22;1338;48.176;11.792;2023-11-19T05:46:15;7.50;99.90
2657;DHT22;1338;48.176;11.792;2023-11-19T05:48:46;7.50;47.80
2657;DHT22;1338;48.176;11.792;2023-11-19T05:51:16;7.50;1.00
2657;DHT22;1338;48.176;11.792;2023-11-19T05:53:45;7.50;1.00
2657;DHT22;1338;48.176;11.792;2023-11-19T05:56:14;7.70;1.00
2657;DHT22;1338;48.176;11.792;2023-11-19T05:58:44;7.80;1.00
2657;DHT22;1338;48.176;11.792;2023-11-19T06:01:15;7.80;1.00
2657;DHT22;1338;48.176;11.792;2023-11-19T06:03:45;7.80;1.00
2657;DHT22;1338;48.176;11.792;2023-11-19T06:06:18;7.80;1.00
2657;DHT22;1338;48.176;11.792;2023-11-19T06:08:48;7.90;1.00
2657;DHT22;1338;48.176;11.792;2023-11-19T06:11:17;7.90;1.00
2657;DHT22;1338;48.176;11.792;2023-11-19T06:13:49;8.00;1.00
2657;DHT22;1338;48.176;11.792;2023-11-19T06:16:18;8.20;1.00
2657;DHT22;1338;48.176;11.792;2023-11-19T06:18:47;8.10;1.00
2657;DHT22;1338;48.176;11.792;2023-11-19T06:21:16;8.10;1.00
2657;DHT22;1338;48.176;11.792;2023-11-19T06:23:45;8.20;1.00
2657;DHT22;1338;48.176;11.792;2023-11-19T06:26:15;8.10;1.00
2657;DHT22;1338;48.176;11.792;2023-11-19T06:28:43;8.20;1.00
2657;DHT22;1338;48.176;11.792;2023-11-19T06:31:13;8.30;1.00
2657;DHT22;1338;48.176;11.792;2023-11-19T06:33:43;8.40;99.90
2657;DHT22;1338;48.176;11.792;2023-11-19T06:36:14;8.40;99.90
2657;DHT22;1338;48.176;11.792;2023-11-19T06:38:45;8.40;99.90
2657;DHT22;1338;48.176;11.792;2023-11-19T06:41:13;8.60;99.90
2657;DHT22;1338;48.176;11.792;2023-11-19T06:43:42;8.50;99.90
2657;DHT22;1338;48.176;11.792;2023-11-19T06:46:17;8.20;99.90
2657;DHT22;1338;48.176;11.792;2023-11-19T06:48:47;8.30;99.90
2657;DHT22;1338;48.176;11.792;2023-11-19T06:51:19;8.20;99.90
2657;DHT22;1338;48.176;11.792;2023-11-19T06:53:51;8.40;99.90
2657;DHT22;1338;48.176;11.792;2023-11-19T06:56:20;8.40;99.90
2657;DHT22;1338;48.176;11.792;2023-11-19T06:58:49;8.40;99.90
2657;DHT22;1338;48.176;11.792;2023-11-19T07:01:24;8.50;99.90
2657;DHT22;1338;48.176;11.792;2023-11-19T07:03:55;8.40;99.90
2657;DHT22;1338;48.176;11.792;2023-11-19T07:06:25;8.60;99.90
2657;DHT22;1338;48.176;11.792;2023-11-19T07:08:57;8.60;99.90
2657;DHT22;1338;48.176;11.792;2023-11-19T07:11:26;8.60;99.90
2657;DHT22;1338;48.176;11.792;2023-11-19T07:13:54;8.70;99.90
2657;DHT22;1338;48.176;11.792;2023-11-19T07:16:24;8.80;32.00
2657;DHT22;1338;48.176;11.792;2023-11-19T07:18:54;8.70;93.70
2657;DHT22;1338;48.176;11.792;2023-11-19T07:21:23;8.70;99.90
2657;DHT22;1338;48.176;11.792;2023-11-19T07:23:51;8.80;99.90
2657;DHT22;1338;48.176;11.792;2023-11-19T07:26:20;8.80;99.90
2657;DHT22;1338;48.176;11.792;2023-11-19T07:28:49;8.90;48.70
2657;DHT22;1338;48.176;11.792;2023-11-19T07:31:18;9.00;1.00
2657;DHT22;1338;48.176;11.792;2023-11-19T07:33:48;8.90;1.00
2657;DHT22;1338;48.176;11.792;2023-11-19T07:36:17;9.00;1.00
2657;DHT22;1338;48.176;11.792;2023-11-19T07:38:46;9.10;1.00
2657;DHT22;1338;48.176;11.792;2023-11-19T07:41:17;9.00;1.00
2657;DHT22;1338;48.176;11.792;2023-11-19T07:43:46;9.10;1.00
2657;DHT22;1338;48.176;11.792;2023-11-19T07:46:16;9.00;4.20
2657;DHT22;1338;48.176;11.792;2023-11-19T07:48:49;9.00;99.90
2657;DHT22;1338;48.176;11.792;2023-11-19T07:51:17;9.00;99.90
2657;DHT22;1338;48.176;11.792;2023-11-19T07:53:48;9.10;1.00
2657;DHT22;1338;48.176;11.792;2023-11-19T07:56:17;9.20;1.00
2657;DHT22;1338;48.176;11.792;2023-11-19T07:58:46;9.30;1.00
2657;DHT22;1338;48.176;11.792;2023-11-19T08:01:15;9.30;1.00
2657;DHT22;1338;48.176;11.792;2023-11-19T08:03:44;9.30;1.00
2657;DHT22;1338;48.176;11.792;2023-11-19T08:06:17;9.30;1.00
2657;DHT22;1338;48.176;11.792;2023-11-19T08:08:47;9.30;1.00
2657;DHT22;1338;48.176;11.792;2023-11-19T08:11:20;9.40;1.00
2657;DHT22;1338;48.176;11.792;2023-11-19T08:13:50;9.40;1.00
2657;DHT22;1338;48.176;11.792;2023-11-19T08:16:18;9.50;1.00
2657;DHT22;1338;48.176;11.792;2023-11-19T08:18:48;9.50;1.00
2657;DHT22;1338;48.176;11.792;2023-11-19T08:21:21;9.60;1.00
2657;DHT22;1338;48.176;11.792;2023-11-19T08:23:51;9.60;1.00
2657;DHT22;1338;48.176;11.792;2023-11-19T08:26:20;9.60;1.00
2657;DHT22;1338;48.176;11.792;2023-11-19T08:28:49;9.60;1.00
2657;DHT22;1338;48.176;11.792;2023-11-19T08:31:19;9.60;1.00
2657;DHT22;1338;48.176;11.792;2023-11-19T08:33:48;9.70;1.00
2657;DHT22;1338;48.176;11.792;2023-11-19T08:36:17;9.70;1.00
2657;DHT22;1338;48.176;11.792;2023-11-19T08:38:47;9.90;1.00
2657;DHT22;1338;48.176;11.792;2023-11-19T08:41:17;9.90;1.00
2657;DHT22;1338;48.176;11.792;2023-11-19T08:43:46;9.90;1.00
2657;DHT22;1338;48.176;11.792;2023-11-19T08:46:15;9.90;1.00
2657;DHT22;1338;48.176;11.792;2023-11-19T08:48:44;9.90;1.00
2657;DHT22;1338;48.176;11.792;2023-11-19T08:51:15;9.90;1.00
2657;DHT22;1338;48.176;11.792;2023-11-19T08:53:48;10.10;1.00
2657;DHT22;1338;48.176;11.792;2023-11-19T08:56:17;10.00;1.00
2657;DHT22;1338;48.176;11.792;2023-11-19T08:58:45;10.10;1.00
2657;DHT22;1338;48.176;11.792;2023-11-19T09:01:14;10.00;1.00
2657;DHT22;1338;48.176;11.792;2023-11-19T09:03:44;9.70;1.00
2657;DHT22;1338;48.176;11.792;2023-11-19T09:06:17;9.50;1.00
2657;DHT22;1338;48.176;11.792;2023-11-19T09:08:47;9.50;99.90
2657;DHT22;1338;48.176;11.792;2023-11-19T09:11:17;9.60;1.00
2657;DHT22;1338;48.176;11.792;2023-11-19T09:13:45;9.70;1.00
2657;DHT22;1338;48.176;11.792;2023-11-19T09:16:14;9.80;1.00
2657;DHT22;1338;48.176;11.792;2023-11-19T09:18:44;10.00;1.00
2657;DHT22;1338;48.176;11.792;2023-11-19T09:21:16;10.10;1.00
2657;DHT22;1338;48.176;11.792;2023-11-19T09:23:44;10.10;1.00
2657;DHT22;1338;48.176;11.792;2023-11-19T09:26:18;10.10;1.00
2657;DHT22;1338;48.176;11.792;2023-11-19T09:28:47;10.30;1.00
2657;DHT22;1338;48.176;11.792;2023-11-19T09:31:16;10.40;1.00
2657;DHT22;1338;48.176;11.792;2023-11-19T09:33:46;10.50;1.00
2657;DHT22;1338;48.176;11.792;2023-11-19T09:36:18;10.50;1.00
2657;DHT22;1338;48.176;11.792;2023-11-19T09:38:47;10.70;99.90
2657;DHT22;1338;48.176;11.792;2023-11-19T09:41:18;10.70;99.90
2657;DHT22;1338;48.176;11.792;2023-11-19T09:43:47;10.70;1.00
2657;DHT22;1338;48.176;11.792;2023-11-19T09:46:19;10.80;99.90
2657;DHT22;1338;48.176;11.792;2023-11-19T09:48:53;10.90;99.90
2657;DHT22;1338;48.176;11.792;2023-11-19T09:51:23;11.10;99.90
2657;DHT22;1338;48.176;11.792;2023-11-19T09:53:53;11.10;99.90
2657;DHT22;1338;48.176;11.792;2023-11-19T09:56:25;11.10;99.90
2657;DHT22;1338;48.176;11.792;2023-11-19T09:58:59;11.20;99.90
2657;DHT22;1338;48.176;11.792;2023-11-19T10:01:29;11.00;99.90
2657;DHT22;1338;48.176;11.792;2023-11-19T10:03:59;10.50;1.00
2657;DHT22;1338;48.176;11.792;2023-11-19T10:06:30;10.20;1.00
2657;DHT22;1338;48.176;11.792;2023-11-19T10:08:59;10.10;99.90
2657;DHT22;1338;48.176;11.792;2023-11-19T10:11:31;10.10;71.50
2657;DHT22;1338;48.176;11.792;2023-11-19T10:13:59;10.20;1.00
2657;DHT22;1338;48.176;11.792;2023-11-19T10:16:31;10.30;1.00
2657;DHT22;1338;48.176;11.792;2023-11-19T10:19:04;10.50;1.00
2657;DHT22;1338;48.176;11.792;2023-11-19T10:21:33;10.70;1.00
2657;DHT22;1338;48.176;11.792;2023-11-19T10:24:03;10.90;1.00
2657;DHT22;1338;48.176;11.792;2023-11-19T10:26:36;11.00;1.00
2657;DHT22;1338;48.176;11.792;2023-11-19T10:29:05;11.10;1.00
2657;DHT22;1338;48.176;11.792;2023-11-19T10:31:32;11.00;1.00
2657;DHT22;1338;48.176;11.792;2023-11-19T10:34:02;11.10;99.90
2657;DHT22;1338;48.176;11.792;2023-11-19T10:36:38;11.30;99.90
2657;DHT22;1338;48.176;11.792;2023-11-19T10:39:10;11.30;99.90
2657;DHT22;1338;48.176;11.792;2023-11-19T10:41:42;11.40;99.90
2657;DHT22;1338;48.176;11.792;2023-11-19T10:44:10;11.50;99.90
2657;DHT22;1338;48.176;11.792;2023-11-19T10:46:40;11.60;99.90
2657;DHT22;1338;48.176;11.792;2023-11-19T10:49:09;11.70;99.90
2657;DHT22;1338;48.176;11.792;2023-11-19T10:51:44;11.80;71.90
2657;DHT22;1338;48.176;11.792;2023-11-19T10:54:19;11.90;1.00
2657;DHT22;1338;48.176;11.792;2023-11-19T10:56:55;11.80;11.90
2657;DHT22;1338;48.176;11.792;2023-11-19T10:59:30;11.80;1.00
2657;DHT22;1338;48.176;11.792;2023-11-19T11:02:06;11.90;1.00
2657;DHT22;1338;48.176;11.792;2023-11-19T11:04:40;12.10;1.00
2657;DHT22;1338;48.176;11.792;2023-11-19T11:07:10;12.20;1.00
2657;DHT22;1338;48.176;11.792;2023-11-19T11:09:41;12.10;1.00
2657;DHT22;1338;48.176;11.792;2023-11-19T11:12:15;12.20;1.00
2657;DHT22;1338;48.176;11.792;2023-11-19T11:14:49;12.20;1.00
2657;DHT22;1338;48.176;11.792;2023-11-19T11:17:21;12.20;1.00
2657;DHT22;1338;48.176;11.792;2023-11-19T11:19:56;12.30;1.00
2657;DHT22;1338;48.176;11.792;2023-11-19T11:22:27;12.50;1.00
2657;DHT22;1338;48.176;11.792;2023-11-19T11:25:19;12.60;1.00
2657;DHT22;1338;48.176;11.792;2023-11-19T11:31:03;12.60;1.00
2657;DHT22;1338;48.176;11.792;2023-11-19T11:33:43;12.50;1.00
2657;DHT22;1338;48.176;11.792;2023-11-19T11:36:31;12.50;1.00
2657;DHT22;1338;48.176;11.792;2023-11-19T11:39:06;12.50;1.00
2657;DHT22;1338;48.176;11.792;2023-11-19T11:41:36;12.60;1.00
2657;DHT22;1338;48.176;11.792;2023-11-19T11:44:04;12.50;1.00
2657;DHT22;1338;48.176;11.792;2023-11-19T11:46:56;12.60;1.00
2657;DHT22;1338;48.176;11.792;2023-11-19T11:49:28;12.60;1.00
2657;DHT22;1338;48.176;11.792;2023-11-19T11:52:03;12.50;1.00
2657;DHT22;1338;48.176;11.792;2023-11-19T11:54:34;12.50;1.00
2657;DHT22;1338;48.176;11.792;2023-11-19T11:57:08;12.50;1.00
2657;DHT22;1338;48.176;11.792;2023-11-19T11:59:48;12.70;1.00
2657;DHT22;1338;48.176;11.792;2023-11-19T12:02:20;12.90;99.90
2657;DHT22;1338;48.176;11.792;2023-11-19T12:04:50;12.90;99.90
2657;DHT22;1338;48.176;11.792;2023-11-19T12:07:21;13.00;99.90
2657;DHT22;1338;48.176;11.792;2023-11-19T12:09:56;13.00;99.90
2657;DHT22;1338;48.176;11.792;2023-11-19T12:12:37;13.10;99.90
2657;DHT22;1338;48.176;11.792;2023-11-19T12:15:08;13.10;99.90
2657;DHT22;1338;48.176;11.792;2023-11-19T12:17:49;13.00;99.90
2657;DHT22;1338;48.176;11.792;2023-11-19T12:20:22;13.60;99.90
2657;DHT22;1338;48.176;11.792;2023-11-19T12:22:54;13.50;99.90
2657;DHT22;1338;48.176;11.792;2023-11-19T12:25:22;13.70;99.90
2657;DHT22;1338;48.176;11.792;2023-11-19T12:27:53;13.80;1.00
2657;DHT22;1338;48.176;11.792;2023-11-19T12:30:22;13.90;1.00
2657;DHT22;1338;48.176;11.792;2023-11-19T12:32:56;14.00;1.00
2657;DHT22;1338;48.176;11.792;2023-11-19T12:35:25;13.90;1.00
2657;DHT22;1338;48.176;11.792;2023-11-19T12:37:55;14.00;1.00
2657;DHT22;1338;48.176;11.792;2023-11-19T12:40:25;14.10;1.00
2657;DHT22;1338;48.176;11.792;2023-11-19T12:42:56;14.10;1.00
2657;DHT22;1338;48.176;11.792;2023-11-19T12:45:24;14.00;1.00
2657;DHT22;1338;48.176;11.792;2023-11-19T12:48:06;14.00;1.00
2657;DHT22;1338;48.176;11.792;2023-11-19T12:50:50;13.90;1.00
2657;DHT22;1338;48.176;11.792;2023-11-19T12:53:20;13.80;1.00
2657;DHT22;1338;48.176;11.792;2023-11-19T12:55:50;13.80;1.00
2657;DHT22;1338;48.176;11.792;2023-11-19T12:58:30;13.80;1.00
2657;DHT22;1338;48.176;11.792;2023-11-19T13:01:01;13.80;1.00
2657;DHT22;1338;48.176;11.792;2023-11-19T13:03:35;13.70;1.00
2657;DHT22;1338;48.176;11.792;2023-11-19T13:06:07;13.70;1.00
2657;DHT22;1338;48.176;11.792;2023-11-19T13:08:40;13.70;1.00
2657;DHT22;1338;48.176;11.792;2023-11-19T13:11:12;13.60;1.00
2657;DHT22;1338;48.176;11.792;2023-11-19T13:13:55;13.50;1.00
2657;DHT22;1338;48.176;11.792;2023-11-19T13:16:25;13.40;1.00
2657;DHT22;1338;48.176;11.792;2023-11-19T13:18:58;13.40;1.00
2657;DHT22;1338;48.176;11.792;2023-11-19T13:21:29;13.40;1.00
2657;DHT22;1338;48.176;11.792;2023-11-19T13:24:00;13.40;1.00
2657;DHT22;1338;48.176;11.792;2023-11-19T13:26:29;13.30;1.00
2657;DHT22;1338;48.176;11.792;2023-11-19T13:28:58;13.30;1.00
2657;DHT22;1338;48.176;11.792;2023-11-19T13:31:27;13.20;1.00
2657;DHT22;1338;48.176;11.792;2023-11-19T13:33:57;13.10;1.00
2657;DHT22;1338;48.176;11.792;2023-11-19T13:36:31;13.10;1.00
2657;DHT22;1338;48.176;11.792;2023-11-19T13:38:59;13.10;1.00
2657;DHT22;1338;48.176;11.792;2023-11-19T13:41:30;13.20;1.00
2657;DHT22;1338;48.176;11.792;2023-11-19T13:43:59;13.20;1.00
2657;DHT22;1338;48.176;11.792;2023-11-19T13:46:28;13.10;1.00
2657;DHT22;1338;48.176;11.792;2023-11-19T13:48:58;13.10;1.00
2657;DHT22;1338;48.176;11.792;2023-11-19T13:51:30;13.20;1.00
2657;DHT22;1338;48.176;11.792;2023-11-19T13:53:58;13.20;1.00
2657;DHT22;1338;48.176;11.792;2023-11-19T13:56:30;13.10;1.00
2657;DHT22;1338;48.176;11.792;2023-11-19T13:58:59;13.10;1.00
2657;DHT22;1338;48.176;11.792;2023-11-19T14:01:31;12.90;1.00
2657;DHT22;1338;48.176;11.792;2023-11-19T14:04:01;12.90;1.00
2657;DHT22;1338;48.176;11.792;2023-11-19T14:06:30;12.90;1.00
2657;DHT22;1338;48.176;11.792;2023-11-19T14:09:03;12.70;1.00
2657;DHT22;1338;48.176;11.792;2023-11-19T14:11:35;12.80;1.00
2657;DHT22;1338;48.176;11.792;2023-11-19T14:14:09;12.70;1.00
2657;DHT22;1338;48.176;11.792;2023-11-19T14:16:38;13.00;1.00
2657;DHT22;1338;48.176;11.792;2023-11-19T14:19:11;12.90;1.00
2657;DHT22;1338;48.176;11.792;2023-11-19T14:21:43;12.90;1.00
2657;DHT22;1338;48.176;11.792;2023-11-19T14:24:12;12.70;1.00
2657;DHT22;1338;48.176;11.792;2023-11-19T14:26:41;12.80;1.00
2657;DHT22;1338;48.176;11.792;2023-11-19T14:29:10;12.70;1.00
2657;DHT22;1338;48.176;11.792;2023-11-19T14:31:42;12.70;1.00
2657;DHT22;1338;48.176;11.792;2023-11-19T14:34:12;12.70;6.30
2657;DHT22;1338;48.176;11.792;2023-11-19T14:36:42;12.80;2.10
2657;DHT22;1338;48.176;11.792;2023-11-19T14:39:13;12.70;25.10
2657;DHT22;1338;48.176;11.792;2023-11-19T14:41:42;12.80;27.20
2657;DHT22;1338;48.176;11.792;2023-11-19T14:44:12;12.70;45.30
2657;DHT22;1338;48.176;11.792;2023-11-19T14:46:41;12.70;68.70
2657;DHT22;1338;48.176;11.792;2023-11-19T14:49:12;12.80;24.00
2657;DHT22;1338;48.176;11.792;2023-11-19T14:51:41;12.70;96.00
2657;DHT22;1338;48.176;11.792;2023-11-19T14:54:10;12.70;85.30
2657;DHT22;1338;48.176;11.792;2023-11-19T14:56:43;12.70;53.60
2657;DHT22;1338;48.176;11.792;2023-11-19T14:59:13;12.60;72.20
2657;DHT22;1338;48.176;11.792;2023-11-19T15:01:44;12.70;10.00
2657;DHT22;1338;48.176;11.792;2023-11-19T15:04:15;12.70;1.00
2657;DHT22;1338;48.176;11.792;2023-11-19T15:06:45;12.90;1.00
2657;DHT22;1338;48.176;11.792;2023-11-19T15:09:15;12.90;1.00
2657;DHT22;1338;48.176;11.792;2023-11-19T15:11:45;12.80;1.00
2657;DHT22;1338;48.176;11.792;2023-11-19T15:14:15;12.80;1.00
2657;DHT22;1338;48.176;11.792;2023-11-19T15:16:47;12.70;1.00
2657;DHT22;1338;48.176;11.792;2023-11-19T15:19:21;12.50;1.00
2657;DHT22;1338;48.176;11.792;2023-11-19T15:21:53;12.30;1.00
2657;DHT22;1338;48.176;11.792;2023-11-19T15:24:24;12.30;7.60
2657;DHT22;1338;48.176;11.792;2023-11-19T15:26:53;12.20;98.10
2657;DHT22;1338;48.176;11.792;2023-11-19T15:29:40;12.10;99.90
2657;DHT22;1338;48.176;11.792;2023-11-19T15:32:11;12.00;99.90
2657;DHT22;1338;48.176;11.792;2023-11-19T15:34:46;11.80;99.90
2657;DHT22;1338;48.176;11.792;2023-11-19T15:37:15;11.70;99.90
2657;DHT22;1338;48.176;11.792;2023-11-19T15:39:44;11.80;99.90
2657;DHT22;1338;48.176;11.792;2023-11-19T15:42:14;11.70;99.90
2657;DHT22;1338;48.176;11.792;2023-11-19T15:44:42;11.80;99.90
2657;DHT22;1338;48.176;11.792;2023-11-19T15:47:15;11.60;99.90
2657;DHT22;1338;48.176;11.792;2023-11-19T15:49:52;11.80;99.90
2657;DHT22;1338;48.176;11.792;2023-11-19T15:52:22;11.50;1.00
2657;DHT22;1338;48.176;11.792;2023-11-19T15:54:50;11.50;99.90
2657;DHT22;1338;48.176;11.792;2023-11-19T15:57:20;11.70;99.90
2657;DHT22;1338;48.176;11.792;2023-11-19T15:59:50;11.60;99.90
2657;DHT22;1338;48.176;11.792;2023-11-19T16:02:21;11.50;99.90
2657;DHT22;1338;48.176;11.792;2023-11-19T16:04:50;11.60;99.90
2657;DHT22;1338;48.176;11.792;2023-11-19T16:07:22;11.40;99.90
2657;DHT22;1338;48.176;11.792;2023-11-19T16:09:50;11.50;99.90
2657;DHT22;1338;48.176;11.792;2023-11-19T16:12:22;11.30;99.90
2657;DHT22;1338;48.176;11.792;2023-11-19T16:14:52;11.50;99.90
2657;DHT22;1338;48.176;11.792;2023-11-19T16:17:22;11.40;99.90
2657;DHT22;1338;48.176;11.792;2023-11-19T16:19:51;11.30;99.90
2657;DHT22;1338;48.176;11.792;2023-11-19T16:22:22;11.20;99.90
2657;DHT22;1338;48.176;11.792;2023-11-19T16:24:54;11.30;99.90
2657;DHT22;1338;48.176;11.792;2023-11-19T16:27:23;11.40;99.90